sensor_id;sensor_type;location;lat;lon;timestamp;P1;durP1;ratioP1;P2;durP2;ratioP2
2161;SDS011;1087;50.226;8.682;2023-01-28T00:00:51;3.83;;;3.50;;
2161;SDS011;1087;50.226;8.682;2023-01-28T00:03:17;3.97;;;3.67;;
2161;SDS011;1087;50.226;8.682;2023-01-28T00:05:42;3.83;;;3.30;;
2161;SDS011;1087;50.226;8.682;2023-01-28T00:08:08;4.13;;;3.20;;
2161;SDS011;1087;50.226;8.682;2023-01-28T00:10:35;4.00;;;3.57;;
2161;SDS011;1087;50.226;8.682;2023-01-28T00:13:03;5.27;;;4.10;;
2161;SDS011;1087;50.226;8.682;2023-01-28T00:15:30;4.03;;;3.63;;
2161;SDS011;1087;50.226;8.682;2023-01-28T00:17:55;3.90;;;3.60;;
2161;SDS011;1087;50.226;8.682;2023-01-28T00:20:21;4.73;;;3.80;;
2161;SDS011;1087;50.226;8.682;2023-01-28T00:22:47;4.77;;;4.03;;
2161;SDS011;1087;50.226;8.682;2023-01-28T00:25:13;4.27;;;3.83;;
2161;SDS011;1087;50.226;8.682;2023-01-28T00:27:38;5.40;;;3.83;;
2161;SDS011;1087;50.226;8.682;2023-01-28T00:30:04;4.00;;;3.37;;
2161;SDS011;1087;50.226;8.682;2023-01-28T00:32:31;4.03;;;3.60;;
2161;SDS011;1087;50.226;8.682;2023-01-28T00:34:56;6.70;;;3.83;;
2161;SDS011;1087;50.226;8.682;2023-01-28T00:37:22;5.90;;;4.00;;
2161;SDS011;1087;50.226;8.682;2023-01-28T00:39:48;4.17;;;3.77;;
2161;SDS011;1087;50.226;8.682;2023-01-28T00:42:13;5.50;;;3.90;;
2161;SDS011;1087;50.226;8.682;2023-01-28T00:44:40;4.67;;;4.27;;
2161;SDS011;1087;50.226;8.682;2023-01-28T00:47:06;4.43;;;4.03;;
2161;SDS011;1087;50.226;8.682;2023-01-28T00:49:31;4.33;;;3.93;;
2161;SDS011;1087;50.226;8.682;2023-01-28T00:51:57;4.50;;;4.07;;
2161;SDS011;1087;50.226;8.682;2023-01-28T00:54:23;4.60;;;3.93;;
2161;SDS011;1087;50.226;8.682;2023-01-28T00:56:48;4.70;;;4.30;;
2161;SDS011;1087;50.226;8.682;2023-01-28T00:59:14;5.13;;;3.67;;
2161;SDS011;1087;50.226;8.682;2023-01-28T01:01:40;4.10;;;3.70;;
2161;SDS011;1087;50.226;8.682;2023-01-28T01:04:05;4.17;;;3.77;;
2161;SDS011;1087;50.226;8.682;2023-01-28T01:06:32;4.27;;;3.87;;
2161;SDS011;1087;50.226;8.682;2023-01-28T01:08:59;5.03;;;3.70;;
2161;SDS011;1087;50.226;8.682;2023-01-28T01:11:26;4.20;;;3.80;;
2161;SDS011;1087;50.226;8.682;2023-01-28T01:13:55;4.10;;;3.70;;
2161;SDS011;1087;50.226;8.682;2023-01-28T01:16:24;7.67;;;5.30;;
2161;SDS011;1087;50.226;8.682;2023-01-28T01:18:51;4.60;;;3.70;;
2161;SDS011;1087;50.226;8.682;2023-01-28T01:21:18;6.47;;;4.60;;
2161;SDS011;1087;50.226;8.682;2023-01-28T01:23:45;4.60;;;4.20;;
2161;SDS011;1087;50.226;8.682;2023-01-28T01:26:11;5.10;;;4.23;;
2161;SDS011;1087;50.226;8.682;2023-01-28T01:28:37;6.27;;;4.90;;
2161;SDS011;1087;50.226;8.682;2023-01-28T01:31:04;5.50;;;4.47;;
2161;SDS011;1087;50.226;8.682;2023-01-28T01:33:40;6.10;;;4.20;;
2161;SDS011;1087;50.226;8.682;2023-01-28T01:36:06;6.60;;;4.20;;
2161;SDS011;1087;50.226;8.682;2023-01-28T01:38:33;4.70;;;4.00;;
2161;SDS011;1087;50.226;8.682;2023-01-28T01:41:00;5.60;;;5.10;;
2161;SDS011;1087;50.226;8.682;2023-01-28T01:46:16;4.77;;;4.10;;
2161;SDS011;1087;50.226;8.682;2023-01-28T01:48:50;6.63;;;4.33;;
2161;SDS011;1087;50.226;8.682;2023-01-28T01:51:18;5.33;;;4.90;;
2161;SDS011;1087;50.226;8.682;2023-01-28T01:53:49;5.33;;;4.20;;
2161;SDS011;1087;50.226;8.682;2023-01-28T01:56:18;4.90;;;4.50;;
2161;SDS011;1087;50.226;8.682;2023-01-28T01:58:49;5.63;;;4.70;;
2161;SDS011;1087;50.226;8.682;2023-01-28T02:01:18;5.27;;;4.77;;
2161;SDS011;1087;50.226;8.682;2023-01-28T02:03:50;5.20;;;4.70;;
2161;SDS011;1087;50.226;8.682;2023-01-28T02:06:21;5.40;;;4.60;;
2161;SDS011;1087;50.226;8.682;2023-01-28T02:08:47;5.23;;;4.73;;
2161;SDS011;1087;50.226;8.682;2023-01-28T02:11:13;4.80;;;4.40;;
2161;SDS011;1087;50.226;8.682;2023-01-28T02:13:42;5.60;;;3.70;;
2161;SDS011;1087;50.226;8.682;2023-01-28T02:16:11;5.33;;;4.83;;
2161;SDS011;1087;50.226;8.682;2023-01-28T02:18:37;5.70;;;4.97;;
2161;SDS011;1087;50.226;8.682;2023-01-28T02:24:00;5.40;;;4.67;;
2161;SDS011;1087;50.226;8.682;2023-01-28T02:27:05;6.83;;;4.83;;
2161;SDS011;1087;50.226;8.682;2023-01-28T02:29:55;5.17;;;4.37;;
2161;SDS011;1087;50.226;8.682;2023-01-28T02:32:32;6.10;;;5.13;;
2161;SDS011;1087;50.226;8.682;2023-01-28T02:37:57;4.90;;;4.43;;
2161;SDS011;1087;50.226;8.682;2023-01-28T02:40:29;6.17;;;4.20;;
2161;SDS011;1087;50.226;8.682;2023-01-28T02:43:27;6.73;;;4.77;;
2161;SDS011;1087;50.226;8.682;2023-01-28T02:46:16;5.50;;;4.27;;
2161;SDS011;1087;50.226;8.682;2023-01-28T02:49:01;4.20;;;3.80;;
2161;SDS011;1087;50.226;8.682;2023-01-28T02:51:33;4.43;;;4.00;;
2161;SDS011;1087;50.226;8.682;2023-01-28T02:56:59;3.93;;;3.20;;
2161;SDS011;1087;50.226;8.682;2023-01-28T02:59:40;5.53;;;4.10;;
2161;SDS011;1087;50.226;8.682;2023-01-28T03:02:27;8.27;;;4.03;;
2161;SDS011;1087;50.226;8.682;2023-01-28T03:04:58;4.73;;;4.27;;
2161;SDS011;1087;50.226;8.682;2023-01-28T03:07:28;4.17;;;3.83;;
2161;SDS011;1087;50.226;8.682;2023-01-28T03:09:56;4.70;;;4.30;;
2161;SDS011;1087;50.226;8.682;2023-01-28T03:12:26;4.97;;;3.97;;
2161;SDS011;1087;50.226;8.682;2023-01-28T03:15:12;8.83;;;4.20;;
2161;SDS011;1087;50.226;8.682;2023-01-28T03:18:22;4.50;;;4.10;;
2161;SDS011;1087;50.226;8.682;2023-01-28T03:24:08;4.30;;;3.90;;
2161;SDS011;1087;50.226;8.682;2023-01-28T03:30:02;5.67;;;3.60;;
2161;SDS011;1087;50.226;8.682;2023-01-28T03:32:51;5.10;;;4.60;;
2161;SDS011;1087;50.226;8.682;2023-01-28T03:35:37;4.50;;;3.70;;
2161;SDS011;1087;50.226;8.682;2023-01-28T03:38:22;4.57;;;3.63;;
2161;SDS011;1087;50.226;8.682;2023-01-28T03:43:27;5.50;;;3.63;;
2161;SDS011;1087;50.226;8.682;2023-01-28T03:45:53;4.60;;;4.00;;
2161;SDS011;1087;50.226;8.682;2023-01-28T03:48:20;6.37;;;4.47;;
2161;SDS011;1087;50.226;8.682;2023-01-28T03:50:47;4.83;;;3.57;;
2161;SDS011;1087;50.226;8.682;2023-01-28T03:53:16;4.10;;;3.50;;
2161;SDS011;1087;50.226;8.682;2023-01-28T03:55:43;3.53;;;3.23;;
2161;SDS011;1087;50.226;8.682;2023-01-28T03:58:10;4.23;;;3.53;;
2161;SDS011;1087;50.226;8.682;2023-01-28T04:00:37;5.00;;;3.70;;
2161;SDS011;1087;50.226;8.682;2023-01-28T04:03:07;3.77;;;3.40;;
2161;SDS011;1087;50.226;8.682;2023-01-28T04:05:43;4.50;;;3.77;;
2161;SDS011;1087;50.226;8.682;2023-01-28T04:08:25;5.30;;;3.37;;
2161;SDS011;1087;50.226;8.682;2023-01-28T04:10:51;7.73;;;3.70;;
2161;SDS011;1087;50.226;8.682;2023-01-28T04:13:16;4.53;;;4.03;;
2161;SDS011;1087;50.226;8.682;2023-01-28T04:15:42;6.50;;;4.30;;
2161;SDS011;1087;50.226;8.682;2023-01-28T04:18:09;4.20;;;3.80;;
2161;SDS011;1087;50.226;8.682;2023-01-28T04:20:35;3.63;;;3.33;;
2161;SDS011;1087;50.226;8.682;2023-01-28T04:23:01;4.13;;;3.73;;
2161;SDS011;1087;50.226;8.682;2023-01-28T04:25:26;3.97;;;3.53;;
2161;SDS011;1087;50.226;8.682;2023-01-28T04:27:52;3.63;;;3.30;;
2161;SDS011;1087;50.226;8.682;2023-01-28T04:30:18;4.07;;;3.33;;
2161;SDS011;1087;50.226;8.682;2023-01-28T04:32:45;4.03;;;3.53;;
2161;SDS011;1087;50.226;8.682;2023-01-28T04:35:10;4.17;;;3.77;;
2161;SDS011;1087;50.226;8.682;2023-01-28T04:37:36;3.80;;;3.50;;
2161;SDS011;1087;50.226;8.682;2023-01-28T04:40:02;3.80;;;3.37;;
2161;SDS011;1087;50.226;8.682;2023-01-28T04:42:28;4.80;;;3.90;;
2161;SDS011;1087;50.226;8.682;2023-01-28T04:44:53;4.63;;;3.20;;
2161;SDS011;1087;50.226;8.682;2023-01-28T04:47:19;3.13;;;2.83;;
2161;SDS011;1087;50.226;8.682;2023-01-28T04:49:44;3.90;;;3.13;;
2161;SDS011;1087;50.226;8.682;2023-01-28T04:52:10;3.30;;;3.00;;
2161;SDS011;1087;50.226;8.682;2023-01-28T04:54:35;3.70;;;3.37;;
2161;SDS011;1087;50.226;8.682;2023-01-28T04:57:01;3.53;;;2.90;;
2161;SDS011;1087;50.226;8.682;2023-01-28T04:59:29;4.60;;;3.97;;
2161;SDS011;1087;50.226;8.682;2023-01-28T05:01:55;4.10;;;3.70;;
2161;SDS011;1087;50.226;8.682;2023-01-28T05:04:20;4.57;;;3.53;;
2161;SDS011;1087;50.226;8.682;2023-01-28T05:06:46;4.10;;;3.23;;
2161;SDS011;1087;50.226;8.682;2023-01-28T05:09:11;4.00;;;3.70;;
2161;SDS011;1087;50.226;8.682;2023-01-28T05:11:38;3.40;;;2.90;;
2161;SDS011;1087;50.226;8.682;2023-01-28T05:14:04;4.73;;;3.67;;
2161;SDS011;1087;50.226;8.682;2023-01-28T05:16:29;3.63;;;3.33;;
2161;SDS011;1087;50.226;8.682;2023-01-28T05:18:56;4.03;;;3.63;;
2161;SDS011;1087;50.226;8.682;2023-01-28T05:21:21;4.60;;;3.77;;
2161;SDS011;1087;50.226;8.682;2023-01-28T05:23:47;4.00;;;3.70;;
2161;SDS011;1087;50.226;8.682;2023-01-28T05:26:12;4.37;;;3.97;;
2161;SDS011;1087;50.226;8.682;2023-01-28T05:28:38;4.20;;;3.80;;
2161;SDS011;1087;50.226;8.682;2023-01-28T05:31:04;5.07;;;4.30;;
2161;SDS011;1087;50.226;8.682;2023-01-28T05:33:31;5.30;;;3.37;;
2161;SDS011;1087;50.226;8.682;2023-01-28T05:35:56;4.10;;;3.53;;
2161;SDS011;1087;50.226;8.682;2023-01-28T05:38:22;4.57;;;4.17;;
2161;SDS011;1087;50.226;8.682;2023-01-28T05:40:47;6.23;;;4.17;;
2161;SDS011;1087;50.226;8.682;2023-01-28T05:43:13;4.87;;;4.13;;
2161;SDS011;1087;50.226;8.682;2023-01-28T05:45:39;4.47;;;4.00;;
2161;SDS011;1087;50.226;8.682;2023-01-28T05:48:05;4.00;;;3.70;;
2161;SDS011;1087;50.226;8.682;2023-01-28T05:50:31;4.50;;;3.93;;
2161;SDS011;1087;50.226;8.682;2023-01-28T05:52:56;5.43;;;3.70;;
2161;SDS011;1087;50.226;8.682;2023-01-28T05:55:22;4.37;;;3.80;;
2161;SDS011;1087;50.226;8.682;2023-01-28T05:57:48;4.87;;;4.47;;
2161;SDS011;1087;50.226;8.682;2023-01-28T06:00:13;4.03;;;3.63;;
2161;SDS011;1087;50.226;8.682;2023-01-28T06:02:40;3.63;;;3.30;;
2161;SDS011;1087;50.226;8.682;2023-01-28T06:05:08;4.10;;;3.70;;
2161;SDS011;1087;50.226;8.682;2023-01-28T06:07:34;4.80;;;3.97;;
2161;SDS011;1087;50.226;8.682;2023-01-28T06:10:00;4.77;;;4.00;;
2161;SDS011;1087;50.226;8.682;2023-01-28T06:12:25;4.37;;;3.97;;
2161;SDS011;1087;50.226;8.682;2023-01-28T06:14:51;4.50;;;4.10;;
2161;SDS011;1087;50.226;8.682;2023-01-28T06:17:16;4.63;;;3.67;;
2161;SDS011;1087;50.226;8.682;2023-01-28T06:19:41;4.70;;;3.70;;
2161;SDS011;1087;50.226;8.682;2023-01-28T06:22:08;4.67;;;4.07;;
2161;SDS011;1087;50.226;8.682;2023-01-28T06:24:33;3.97;;;3.57;;
2161;SDS011;1087;50.226;8.682;2023-01-28T06:26:59;4.90;;;3.80;;
2161;SDS011;1087;50.226;8.682;2023-01-28T06:29:25;4.20;;;3.40;;
2161;SDS011;1087;50.226;8.682;2023-01-28T06:31:50;4.50;;;3.20;;
2161;SDS011;1087;50.226;8.682;2023-01-28T06:34:16;3.97;;;3.67;;
2161;SDS011;1087;50.226;8.682;2023-01-28T06:36:42;3.57;;;3.23;;
2161;SDS011;1087;50.226;8.682;2023-01-28T06:39:07;5.50;;;3.93;;
2161;SDS011;1087;50.226;8.682;2023-01-28T06:41:33;3.50;;;3.10;;
2161;SDS011;1087;50.226;8.682;2023-01-28T06:43:58;3.40;;;3.10;;
2161;SDS011;1087;50.226;8.682;2023-01-28T06:46:24;3.73;;;3.43;;
2161;SDS011;1087;50.226;8.682;2023-01-28T06:48:49;4.87;;;4.40;;
2161;SDS011;1087;50.226;8.682;2023-01-28T06:51:15;4.60;;;3.90;;
2161;SDS011;1087;50.226;8.682;2023-01-28T06:53:41;4.43;;;3.97;;
2161;SDS011;1087;50.226;8.682;2023-01-28T06:56:06;3.50;;;3.20;;
2161;SDS011;1087;50.226;8.682;2023-01-28T06:58:33;4.33;;;3.60;;
2161;SDS011;1087;50.226;8.682;2023-01-28T07:00:58;4.90;;;3.57;;
2161;SDS011;1087;50.226;8.682;2023-01-28T07:03:24;3.80;;;3.30;;
2161;SDS011;1087;50.226;8.682;2023-01-28T07:05:50;4.13;;;3.63;;
2161;SDS011;1087;50.226;8.682;2023-01-28T07:08:16;3.30;;;3.00;;
2161;SDS011;1087;50.226;8.682;2023-01-28T07:10:42;3.37;;;2.80;;
2161;SDS011;1087;50.226;8.682;2023-01-28T07:13:08;4.20;;;3.03;;
2161;SDS011;1087;50.226;8.682;2023-01-28T07:15:34;3.77;;;3.40;;
2161;SDS011;1087;50.226;8.682;2023-01-28T07:17:59;3.20;;;2.90;;
2161;SDS011;1087;50.226;8.682;2023-01-28T07:20:25;3.20;;;2.97;;
2161;SDS011;1087;50.226;8.682;2023-01-28T07:22:50;3.80;;;3.37;;
2161;SDS011;1087;50.226;8.682;2023-01-28T07:25:16;4.57;;;4.17;;
2161;SDS011;1087;50.226;8.682;2023-01-28T07:27:46;5.60;;;3.80;;
2161;SDS011;1087;50.226;8.682;2023-01-28T07:30:16;5.40;;;4.90;;
2161;SDS011;1087;50.226;8.682;2023-01-28T07:32:43;4.63;;;3.80;;
2161;SDS011;1087;50.226;8.682;2023-01-28T07:35:08;5.13;;;4.00;;
2161;SDS011;1087;50.226;8.682;2023-01-28T07:37:34;4.97;;;4.57;;
2161;SDS011;1087;50.226;8.682;2023-01-28T07:40:00;4.53;;;4.13;;
2161;SDS011;1087;50.226;8.682;2023-01-28T07:42:25;9.43;;;5.97;;
2161;SDS011;1087;50.226;8.682;2023-01-28T07:44:51;4.30;;;3.90;;
2161;SDS011;1087;50.226;8.682;2023-01-28T07:47:16;5.17;;;4.70;;
2161;SDS011;1087;50.226;8.682;2023-01-28T07:49:43;5.00;;;3.17;;
2161;SDS011;1087;50.226;8.682;2023-01-28T07:52:08;4.53;;;4.13;;
2161;SDS011;1087;50.226;8.682;2023-01-28T07:54:34;3.77;;;3.43;;
2161;SDS011;1087;50.226;8.682;2023-01-28T07:56:59;6.43;;;5.50;;
2161;SDS011;1087;50.226;8.682;2023-01-28T07:59:25;7.40;;;6.40;;
2161;SDS011;1087;50.226;8.682;2023-01-28T08:01:51;6.60;;;5.93;;
2161;SDS011;1087;50.226;8.682;2023-01-28T08:04:18;6.83;;;5.13;;
2161;SDS011;1087;50.226;8.682;2023-01-28T08:06:44;7.83;;;6.47;;
2161;SDS011;1087;50.226;8.682;2023-01-28T08:09:09;23.87;;;16.77;;
2161;SDS011;1087;50.226;8.682;2023-01-28T08:11:36;7.90;;;6.93;;
2161;SDS011;1087;50.226;8.682;2023-01-28T08:14:03;6.60;;;5.10;;
2161;SDS011;1087;50.226;8.682;2023-01-28T08:16:29;5.67;;;4.77;;
2161;SDS011;1087;50.226;8.682;2023-01-28T08:18:55;6.20;;;4.80;;
2161;SDS011;1087;50.226;8.682;2023-01-28T08:21:20;5.20;;;4.70;;
2161;SDS011;1087;50.226;8.682;2023-01-28T08:23:46;4.13;;;3.77;;
2161;SDS011;1087;50.226;8.682;2023-01-28T08:26:11;3.87;;;3.47;;
2161;SDS011;1087;50.226;8.682;2023-01-28T08:28:37;4.80;;;4.30;;
2161;SDS011;1087;50.226;8.682;2023-01-28T08:31:03;5.80;;;5.30;;
2161;SDS011;1087;50.226;8.682;2023-01-28T08:33:28;4.47;;;3.63;;
2161;SDS011;1087;50.226;8.682;2023-01-28T08:35:54;6.50;;;4.33;;
2161;SDS011;1087;50.226;8.682;2023-01-28T08:38:19;4.60;;;3.63;;
2161;SDS011;1087;50.226;8.682;2023-01-28T08:40:46;3.50;;;3.20;;
2161;SDS011;1087;50.226;8.682;2023-01-28T08:43:11;4.23;;;3.83;;
2161;SDS011;1087;50.226;8.682;2023-01-28T08:45:38;4.67;;;3.87;;
2161;SDS011;1087;50.226;8.682;2023-01-28T08:48:05;3.90;;;3.60;;
2161;SDS011;1087;50.226;8.682;2023-01-28T08:50:33;5.80;;;3.73;;
2161;SDS011;1087;50.226;8.682;2023-01-28T08:53:02;4.80;;;4.30;;
2161;SDS011;1087;50.226;8.682;2023-01-28T08:55:29;3.70;;;3.40;;
2161;SDS011;1087;50.226;8.682;2023-01-28T08:57:55;3.40;;;3.10;;
2161;SDS011;1087;50.226;8.682;2023-01-28T09:00:21;4.07;;;3.47;;
2161;SDS011;1087;50.226;8.682;2023-01-28T09:02:50;3.70;;;3.40;;
2161;SDS011;1087;50.226;8.682;2023-01-28T09:05:17;3.80;;;3.33;;
2161;SDS011;1087;50.226;8.682;2023-01-28T09:07:43;3.43;;;3.13;;
2161;SDS011;1087;50.226;8.682;2023-01-28T09:10:09;3.50;;;3.20;;
2161;SDS011;1087;50.226;8.682;2023-01-28T09:12:35;3.60;;;2.90;;
2161;SDS011;1087;50.226;8.682;2023-01-28T09:15:01;2.80;;;2.60;;
2161;SDS011;1087;50.226;8.682;2023-01-28T09:17:26;6.43;;;3.70;;
2161;SDS011;1087;50.226;8.682;2023-01-28T09:19:52;2.90;;;2.60;;
2161;SDS011;1087;50.226;8.682;2023-01-28T09:22:18;2.70;;;2.50;;
2161;SDS011;1087;50.226;8.682;2023-01-28T09:24:43;3.37;;;3.07;;
2161;SDS011;1087;50.226;8.682;2023-01-28T09:27:09;3.60;;;2.73;;
2161;SDS011;1087;50.226;8.682;2023-01-28T09:29:34;7.27;;;3.03;;
2161;SDS011;1087;50.226;8.682;2023-01-28T09:32:01;4.50;;;3.50;;
2161;SDS011;1087;50.226;8.682;2023-01-28T09:34:26;2.80;;;2.60;;
2161;SDS011;1087;50.226;8.682;2023-01-28T09:36:52;3.30;;;3.00;;
2161;SDS011;1087;50.226;8.682;2023-01-28T09:39:18;4.60;;;3.10;;
2161;SDS011;1087;50.226;8.682;2023-01-28T09:47:18;5.40;;;3.20;;
2161;SDS011;1087;50.226;8.682;2023-01-28T09:49:57;3.67;;;3.27;;
2161;SDS011;1087;50.226;8.682;2023-01-28T09:52:25;3.40;;;2.67;;
2161;SDS011;1087;50.226;8.682;2023-01-28T09:54:55;6.53;;;5.57;;
2161;SDS011;1087;50.226;8.682;2023-01-28T09:57:26;6.00;;;3.67;;
2161;SDS011;1087;50.226;8.682;2023-01-28T10:00:01;3.90;;;3.50;;
2161;SDS011;1087;50.226;8.682;2023-01-28T10:05:40;3.10;;;2.77;;
2161;SDS011;1087;50.226;8.682;2023-01-28T10:08:58;11.50;;;8.57;;
2161;SDS011;1087;50.226;8.682;2023-01-28T10:14:18;4.30;;;3.90;;
2161;SDS011;1087;50.226;8.682;2023-01-28T10:16:59;4.83;;;3.93;;
2161;SDS011;1087;50.226;8.682;2023-01-28T10:19:32;3.87;;;3.50;;
2161;SDS011;1087;50.226;8.682;2023-01-28T10:22:04;3.50;;;3.20;;
2161;SDS011;1087;50.226;8.682;2023-01-28T10:24:40;3.83;;;3.53;;
2161;SDS011;1087;50.226;8.682;2023-01-28T10:27:14;8.80;;;6.57;;
2161;SDS011;1087;50.226;8.682;2023-01-28T10:29:43;11.13;;;8.37;;
2161;SDS011;1087;50.226;8.682;2023-01-28T10:32:21;8.73;;;6.93;;
2161;SDS011;1087;50.226;8.682;2023-01-28T10:34:51;6.90;;;6.20;;
2161;SDS011;1087;50.226;8.682;2023-01-28T10:37:17;5.37;;;4.50;;
2161;SDS011;1087;50.226;8.682;2023-01-28T10:39:43;4.43;;;4.03;;
2161;SDS011;1087;50.226;8.682;2023-01-28T10:42:15;4.30;;;3.90;;
2161;SDS011;1087;50.226;8.682;2023-01-28T10:45:00;3.20;;;2.90;;
2161;SDS011;1087;50.226;8.682;2023-01-28T10:47:40;3.00;;;2.70;;
2161;SDS011;1087;50.226;8.682;2023-01-28T10:50:21;3.60;;;2.83;;
2161;SDS011;1087;50.226;8.682;2023-01-28T10:52:55;4.83;;;3.33;;
2161;SDS011;1087;50.226;8.682;2023-01-28T10:55:26;4.00;;;3.60;;
2161;SDS011;1087;50.226;8.682;2023-01-28T10:58:01;3.50;;;3.20;;
2161;SDS011;1087;50.226;8.682;2023-01-28T11:00:30;6.17;;;5.67;;
2161;SDS011;1087;50.226;8.682;2023-01-28T11:03:01;5.30;;;4.90;;
2161;SDS011;1087;50.226;8.682;2023-01-28T11:05:27;3.90;;;3.60;;
2161;SDS011;1087;50.226;8.682;2023-01-28T11:08:14;3.87;;;3.60;;
2161;SDS011;1087;50.226;8.682;2023-01-28T11:10:40;2.90;;;2.70;;
2161;SDS011;1087;50.226;8.682;2023-01-28T11:13:20;3.50;;;3.10;;
2161;SDS011;1087;50.226;8.682;2023-01-28T11:16:04;5.17;;;3.43;;
2161;SDS011;1087;50.226;8.682;2023-01-28T11:18:45;2.67;;;2.47;;
2161;SDS011;1087;50.226;8.682;2023-01-28T11:21:15;4.23;;;3.00;;
2161;SDS011;1087;50.226;8.682;2023-01-28T11:23:50;3.87;;;2.60;;
2161;SDS011;1087;50.226;8.682;2023-01-28T11:26:23;3.27;;;2.67;;
2161;SDS011;1087;50.226;8.682;2023-01-28T11:28:50;3.40;;;3.10;;
2161;SDS011;1087;50.226;8.682;2023-01-28T11:31:17;3.40;;;3.10;;
2161;SDS011;1087;50.226;8.682;2023-01-28T11:33:48;3.00;;;2.80;;
2161;SDS011;1087;50.226;8.682;2023-01-28T11:36:19;4.67;;;3.37;;
2161;SDS011;1087;50.226;8.682;2023-01-28T11:38:54;3.97;;;3.67;;
2161;SDS011;1087;50.226;8.682;2023-01-28T11:41:25;4.00;;;3.70;;
2161;SDS011;1087;50.226;8.682;2023-01-28T11:43:57;7.13;;;6.53;;
2161;SDS011;1087;50.226;8.682;2023-01-28T11:57:43;4.60;;;3.37;;
2161;SDS011;1087;50.226;8.682;2023-01-28T12:00:29;17.87;;;10.03;;
2161;SDS011;1087;50.226;8.682;2023-01-28T12:03:30;9.07;;;6.57;;
2161;SDS011;1087;50.226;8.682;2023-01-28T12:09:10;4.80;;;3.30;;
2161;SDS011;1087;50.226;8.682;2023-01-28T12:34:03;2.80;;;2.60;;
2161;SDS011;1087;50.226;8.682;2023-01-28T12:39:15;7.27;;;4.87;;
2161;SDS011;1087;50.226;8.682;2023-01-28T12:42:03;8.30;;;4.73;;
2161;SDS011;1087;50.226;8.682;2023-01-28T12:44:37;3.73;;;3.33;;
2161;SDS011;1087;50.226;8.682;2023-01-28T12:47:19;3.40;;;2.40;;
2161;SDS011;1087;50.226;8.682;2023-01-28T12:49:58;3.13;;;2.83;;
2161;SDS011;1087;50.226;8.682;2023-01-28T12:52:33;3.87;;;2.97;;
2161;SDS011;1087;50.226;8.682;2023-01-28T12:57:38;2.60;;;2.37;;
2161;SDS011;1087;50.226;8.682;2023-01-28T13:05:51;3.07;;;2.07;;
2161;SDS011;1087;50.226;8.682;2023-01-28T13:08:25;2.00;;;1.83;;
2161;SDS011;1087;50.226;8.682;2023-01-28T13:10:52;3.23;;;2.83;;
2161;SDS011;1087;50.226;8.682;2023-01-28T13:13:33;2.77;;;2.57;;
2161;SDS011;1087;50.226;8.682;2023-01-28T13:16:02;3.83;;;3.43;;
2161;SDS011;1087;50.226;8.682;2023-01-28T13:18:33;4.73;;;3.10;;
2161;SDS011;1087;50.226;8.682;2023-01-28T13:21:06;3.30;;;3.00;;
2161;SDS011;1087;50.226;8.682;2023-01-28T13:28:46;3.60;;;2.20;;
2161;SDS011;1087;50.226;8.682;2023-01-28T13:31:13;2.93;;;2.63;;
2161;SDS011;1087;50.226;8.682;2023-01-28T13:38:59;4.10;;;2.43;;
2161;SDS011;1087;50.226;8.682;2023-01-28T13:41:38;2.10;;;2.00;;
2161;SDS011;1087;50.226;8.682;2023-01-28T13:46:50;3.77;;;2.20;;
2161;SDS011;1087;50.226;8.682;2023-01-28T13:49:17;2.40;;;1.70;;
2161;SDS011;1087;50.226;8.682;2023-01-28T13:54:45;3.57;;;2.27;;
2161;SDS011;1087;50.226;8.682;2023-01-28T14:08:51;4.47;;;3.10;;
2161;SDS011;1087;50.226;8.682;2023-01-28T14:16:59;2.50;;;2.30;;
2161;SDS011;1087;50.226;8.682;2023-01-28T14:19:32;3.70;;;2.20;;
2161;SDS011;1087;50.226;8.682;2023-01-28T14:22:07;2.90;;;2.30;;
2161;SDS011;1087;50.226;8.682;2023-01-28T14:24:35;3.50;;;3.20;;
2161;SDS011;1087;50.226;8.682;2023-01-28T14:27:12;9.27;;;6.47;;
2161;SDS011;1087;50.226;8.682;2023-01-28T14:32:42;4.80;;;4.23;;
2161;SDS011;1087;50.226;8.682;2023-01-28T14:35:14;4.00;;;3.63;;
2161;SDS011;1087;50.226;8.682;2023-01-28T14:37:43;2.83;;;2.63;;
2161;SDS011;1087;50.226;8.682;2023-01-28T14:40:13;2.27;;;2.13;;
2161;SDS011;1087;50.226;8.682;2023-01-28T14:42:44;3.20;;;2.90;;
2161;SDS011;1087;50.226;8.682;2023-01-28T14:45:24;2.90;;;2.30;;
2161;SDS011;1087;50.226;8.682;2023-01-28T15:00:15;3.13;;;2.70;;
2161;SDS011;1087;50.226;8.682;2023-01-28T15:02:43;3.00;;;2.80;;
2161;SDS011;1087;50.226;8.682;2023-01-28T15:05:09;5.73;;;2.43;;
2161;SDS011;1087;50.226;8.682;2023-01-28T15:07:42;2.70;;;2.50;;
2161;SDS011;1087;50.226;8.682;2023-01-28T15:10:17;2.40;;;2.17;;
2161;SDS011;1087;50.226;8.682;2023-01-28T15:12:50;5.27;;;3.23;;
2161;SDS011;1087;50.226;8.682;2023-01-28T15:15:29;3.53;;;3.17;;
2161;SDS011;1087;50.226;8.682;2023-01-28T15:17:59;3.33;;;2.63;;
2161;SDS011;1087;50.226;8.682;2023-01-28T15:20:28;3.83;;;2.43;;
2161;SDS011;1087;50.226;8.682;2023-01-28T15:22:54;2.70;;;2.50;;
2161;SDS011;1087;50.226;8.682;2023-01-28T15:25:23;3.60;;;2.77;;
2161;SDS011;1087;50.226;8.682;2023-01-28T15:27:53;4.60;;;2.60;;
2161;SDS011;1087;50.226;8.682;2023-01-28T15:30:23;3.27;;;3.00;;
2161;SDS011;1087;50.226;8.682;2023-01-28T15:35:27;3.30;;;3.00;;
2161;SDS011;1087;50.226;8.682;2023-01-28T15:37:53;5.50;;;2.80;;
2161;SDS011;1087;50.226;8.682;2023-01-28T15:40:19;3.50;;;2.73;;
2161;SDS011;1087;50.226;8.682;2023-01-28T15:42:47;3.50;;;2.30;;
2161;SDS011;1087;50.226;8.682;2023-01-28T15:45:17;4.60;;;4.20;;
2161;SDS011;1087;50.226;8.682;2023-01-28T15:47:44;6.43;;;5.83;;
2161;SDS011;1087;50.226;8.682;2023-01-28T15:50:21;6.83;;;4.63;;
2161;SDS011;1087;50.226;8.682;2023-01-28T15:52:48;4.10;;;3.77;;
2161;SDS011;1087;50.226;8.682;2023-01-28T16:01:17;3.67;;;3.30;;
2161;SDS011;1087;50.226;8.682;2023-01-28T16:03:44;3.10;;;2.80;;
2161;SDS011;1087;50.226;8.682;2023-01-28T16:06:18;3.20;;;2.90;;
2161;SDS011;1087;50.226;8.682;2023-01-28T16:08:56;3.67;;;3.37;;
2161;SDS011;1087;50.226;8.682;2023-01-28T16:11:25;3.13;;;2.93;;
2161;SDS011;1087;50.226;8.682;2023-01-28T16:13:53;3.97;;;3.57;;
2161;SDS011;1087;50.226;8.682;2023-01-28T16:16:24;4.43;;;3.63;;
2161;SDS011;1087;50.226;8.682;2023-01-28T16:19:02;5.87;;;5.27;;
2161;SDS011;1087;50.226;8.682;2023-01-28T16:21:31;6.40;;;5.80;;
2161;SDS011;1087;50.226;8.682;2023-01-28T16:26:31;7.03;;;5.83;;
2161;SDS011;1087;50.226;8.682;2023-01-28T16:28:59;5.50;;;5.00;;
2161;SDS011;1087;50.226;8.682;2023-01-28T16:31:41;6.57;;;6.07;;
2161;SDS011;1087;50.226;8.682;2023-01-28T16:34:07;6.30;;;5.80;;
2161;SDS011;1087;50.226;8.682;2023-01-28T16:36:34;5.20;;;4.80;;
2161;SDS011;1087;50.226;8.682;2023-01-28T16:38:59;5.17;;;4.73;;
2161;SDS011;1087;50.226;8.682;2023-01-28T16:41:25;5.67;;;4.20;;
2161;SDS011;1087;50.226;8.682;2023-01-28T16:43:52;5.70;;;5.20;;
2161;SDS011;1087;50.226;8.682;2023-01-28T16:46:18;7.80;;;5.47;;
2161;SDS011;1087;50.226;8.682;2023-01-28T16:48:44;11.83;;;10.37;;
2161;SDS011;1087;50.226;8.682;2023-01-28T16:51:14;10.33;;;9.00;;
2161;SDS011;1087;50.226;8.682;2023-01-28T16:53:45;7.67;;;6.70;;
2161;SDS011;1087;50.226;8.682;2023-01-28T16:56:13;8.13;;;7.23;;
2161;SDS011;1087;50.226;8.682;2023-01-28T16:58:45;8.10;;;7.20;;
2161;SDS011;1087;50.226;8.682;2023-01-28T17:01:11;6.97;;;6.27;;
2161;SDS011;1087;50.226;8.682;2023-01-28T17:03:37;8.37;;;6.40;;
2161;SDS011;1087;50.226;8.682;2023-01-28T17:06:04;7.30;;;6.37;;
2161;SDS011;1087;50.226;8.682;2023-01-28T17:08:30;7.03;;;6.33;;
2161;SDS011;1087;50.226;8.682;2023-01-28T17:10:56;7.97;;;6.27;;
2161;SDS011;1087;50.226;8.682;2023-01-28T17:13:22;6.93;;;6.20;;
2161;SDS011;1087;50.226;8.682;2023-01-28T17:15:47;7.30;;;6.50;;
2161;SDS011;1087;50.226;8.682;2023-01-28T17:18:13;6.40;;;5.63;;
2161;SDS011;1087;50.226;8.682;2023-01-28T17:20:38;6.30;;;5.70;;
2161;SDS011;1087;50.226;8.682;2023-01-28T17:23:07;6.40;;;5.70;;
2161;SDS011;1087;50.226;8.682;2023-01-28T17:25:38;9.00;;;7.60;;
2161;SDS011;1087;50.226;8.682;2023-01-28T17:28:04;8.00;;;6.67;;
2161;SDS011;1087;50.226;8.682;2023-01-28T17:30:31;8.50;;;7.03;;
2161;SDS011;1087;50.226;8.682;2023-01-28T17:32:56;8.77;;;7.90;;
2161;SDS011;1087;50.226;8.682;2023-01-28T17:35:22;10.97;;;7.77;;
2161;SDS011;1087;50.226;8.682;2023-01-28T17:37:50;8.10;;;7.03;;
2161;SDS011;1087;50.226;8.682;2023-01-28T17:40:17;10.03;;;8.43;;
2161;SDS011;1087;50.226;8.682;2023-01-28T17:42:42;8.20;;;7.40;;
2161;SDS011;1087;50.226;8.682;2023-01-28T17:45:08;8.17;;;7.37;;
2161;SDS011;1087;50.226;8.682;2023-01-28T17:47:33;14.30;;;9.00;;